Terminal Aerodrome Forecast
Issued by NWS Jackson, MS

Home | Current Version | Previous Version | Text Only | Print | Product List | Glossary On
Versions: 1 2 3 4 5 6 7 8 9 10 11 12 13 14 15 16 17
000
FTUS44 KMEG 282321
TAFTUP
TAF
KTUP 282321Z 2900/2924 21008KT P6SM VCTS SCT035CB BKN060
     FM290200 22004KT P6SM SCT060 BKN250
     FM290800 VRB03KT 6SM BR SCT015
      TEMPO 2909/2913 3SM BR OVC015
     FM291400 26007KT P6SM VCSH BKN025
     FM292000 28007KT P6SM VCTS BKN035CB=

USA.gov is the U.S. government's official web portal to all federal, state and local government web resources and services.